createdAt,value
2023-05-02T00:00:38.993Z,33.39
2023-05-02T00:01:39.042Z,33.39
2023-05-02T00:02:39.111Z,33.41
2023-05-02T00:03:39.047Z,33.41
2023-05-02T00:04:39.169Z,33.39
2023-05-02T00:05:39.020Z,33.40
2023-05-02T00:06:39.144Z,33.39
2023-05-02T00:07:39.058Z,33.39
2023-05-02T00:08:39.057Z,33.40
2023-05-02T00:09:39.084Z,33.41
2023-05-02T00:10:39.067Z,33.39
2023-05-02T00:11:39.076Z,33.38
2023-05-02T00:12:39.122Z,33.40
2023-05-02T00:13:39.096Z,33.39
2023-05-02T00:14:39.117Z,33.42
2023-05-02T00:15:39.114Z,33.38
2023-05-02T00:16:39.178Z,33.38
2023-05-02T00:17:39.150Z,33.37
2023-05-02T00:18:39.144Z,33.37
2023-05-02T00:19:39.144Z,33.40
2023-05-02T00:20:39.143Z,33.38
2023-05-02T00:21:39.177Z,33.40
2023-05-02T00:22:39.173Z,33.37
2023-05-02T00:23:39.181Z,33.38
2023-05-02T00:24:39.175Z,33.38
2023-05-02T00:25:39.207Z,33.40
2023-05-02T00:26:39.197Z,33.37
2023-05-02T00:27:39.241Z,33.36
2023-05-02T00:28:39.200Z,33.36
2023-05-02T00:29:39.258Z,33.38
2023-05-02T00:30:39.249Z,33.35
2023-05-02T00:31:39.359Z,33.36
2023-05-02T00:32:39.298Z,33.34
2023-05-02T00:33:39.372Z,33.38
2023-05-02T00:34:39.311Z,33.36
2023-05-02T00:35:39.295Z,33.37
2023-05-02T00:36:39.314Z,33.35
2023-05-02T00:37:39.409Z,33.36
2023-05-02T00:38:39.323Z,33.35
2023-05-02T00:39:39.387Z,33.36
2023-05-02T00:40:39.373Z,33.37
2023-05-02T00:41:39.376Z,33.37
2023-05-02T00:42:39.396Z,33.36
2023-05-02T00:43:39.382Z,33.37
2023-05-02T00:44:39.397Z,33.38
2023-05-02T00:45:39.395Z,33.38
2023-05-02T00:46:39.448Z,33.38
2023-05-02T00:47:39.437Z,33.37
2023-05-02T00:48:39.449Z,33.38
2023-05-02T00:49:39.468Z,33.36
2023-05-02T00:50:39.483Z,33.39
2023-05-02T00:51:39.488Z,33.38
2023-05-02T00:52:39.481Z,33.37
2023-05-02T00:53:39.524Z,33.35
2023-05-02T00:54:39.520Z,33.38
2023-05-02T00:55:39.569Z,33.37
2023-05-02T00:56:39.550Z,33.37
2023-05-02T00:57:39.559Z,33.36
2023-05-02T00:58:39.555Z,33.37
2023-05-02T00:59:39.574Z,33.38
2023-05-02T01:00:39.590Z,33.36
2023-05-02T01:01:39.764Z,33.36
2023-05-02T01:02:39.739Z,33.36
2023-05-02T01:03:39.942Z,33.37
2023-05-02T01:04:39.735Z,33.35
2023-05-02T01:05:39.851Z,33.37
2023-05-02T01:06:39.873Z,33.37
2023-05-02T01:07:39.861Z,33.38
2023-05-02T01:08:39.858Z,33.37
2023-05-02T01:09:39.849Z,33.36
2023-05-02T01:10:39.909Z,33.37
2023-05-02T01:11:39.908Z,33.36
2023-05-02T01:12:39.908Z,33.35
2023-05-02T01:13:39.908Z,33.38
2023-05-02T01:14:39.925Z,33.38
2023-05-02T01:15:39.974Z,33.36
2023-05-02T01:16:40.039Z,33.37
2023-05-02T01:17:39.944Z,33.35
2023-05-02T01:18:39.929Z,33.35
2023-05-02T01:19:39.951Z,33.37
2023-05-02T01:20:39.961Z,33.34
2023-05-02T01:21:39.965Z,33.34
2023-05-02T01:22:39.970Z,33.34
2023-05-02T01:23:39.995Z,33.35
2023-05-02T01:24:39.961Z,33.37
2023-05-02T01:25:40.011Z,33.37
2023-05-02T01:26:40.020Z,33.34
2023-05-02T01:27:40.060Z,33.35
2023-05-02T01:28:40.035Z,33.33
2023-05-02T01:29:40.070Z,33.32
2023-05-02T01:30:40.101Z,33.33
2023-05-02T01:31:40.106Z,33.33
2023-05-02T01:32:40.157Z,33.34
2023-05-02T01:33:40.135Z,33.33
2023-05-02T01:34:40.163Z,33.35
2023-05-02T01:35:40.148Z,33.34
2023-05-02T01:36:40.187Z,33.35
2023-05-02T01:37:40.176Z,33.34
2023-05-02T01:38:40.203Z,33.36
2023-05-02T01:39:40.211Z,33.36
2023-05-02T01:40:40.340Z,33.31
2023-05-02T01:41:40.270Z,33.32
2023-05-02T01:42:40.249Z,33.32
2023-05-02T01:43:40.305Z,33.32
2023-05-02T01:44:40.261Z,33.34
2023-05-02T01:45:40.272Z,33.33
2023-05-02T01:46:40.385Z,33.34
2023-05-02T01:47:40.382Z,33.34
2023-05-02T01:48:40.352Z,33.30
2023-05-02T01:49:40.369Z,33.30
2023-05-02T01:50:40.368Z,33.32
2023-05-02T01:51:40.411Z,33.32
2023-05-02T01:52:40.382Z,33.30
2023-05-02T01:53:40.513Z,33.31
2023-05-02T01:54:40.419Z,33.33
2023-05-02T01:55:40.447Z,33.29
2023-05-02T01:56:40.470Z,33.31
2023-05-02T01:57:40.451Z,33.30
2023-05-02T01:58:40.521Z,33.30
2023-05-02T01:59:40.506Z,33.31
2023-05-02T02:00:40.564Z,33.30
2023-05-02T02:01:40.678Z,33.31
2023-05-02T02:02:40.494Z,33.31
2023-05-02T02:03:40.511Z,33.33
2023-05-02T02:04:40.635Z,33.30
2023-05-02T02:05:40.573Z,33.31
2023-05-02T02:06:40.621Z,33.30
2023-05-02T02:07:40.581Z,33.31
2023-05-02T02:08:40.611Z,33.29
2023-05-02T02:09:40.643Z,33.29
2023-05-02T02:10:40.628Z,33.31
2023-05-02T02:11:40.702Z,33.30
2023-05-02T02:12:40.646Z,33.32
2023-05-02T02:13:40.675Z,33.29
2023-05-02T02:14:40.689Z,33.32
2023-05-02T02:15:40.741Z,33.30
2023-05-02T02:16:40.728Z,33.28
2023-05-02T02:17:40.735Z,33.29
2023-05-02T02:18:40.725Z,33.28
2023-05-02T02:19:40.757Z,33.29
2023-05-02T02:20:40.769Z,33.30
2023-05-02T02:21:40.849Z,33.29
2023-05-02T02:22:40.817Z,33.28
2023-05-02T02:23:40.852Z,33.30
2023-05-02T02:24:40.829Z,33.29
2023-05-02T02:25:40.880Z,33.28
2023-05-02T02:26:40.911Z,33.30
2023-05-02T02:27:40.929Z,33.29
2023-05-02T02:28:40.932Z,33.28
2023-05-02T02:29:40.927Z,33.27
2023-05-02T02:30:40.985Z,33.29
2023-05-02T02:31:40.958Z,33.31
2023-05-02T02:32:41.035Z,33.30
2023-05-02T02:33:41.009Z,33.27
2023-05-02T02:34:41.038Z,33.26
2023-05-02T02:35:41.033Z,33.30
2023-05-02T02:36:41.029Z,33.30
2023-05-02T02:37:41.169Z,33.31
2023-05-02T02:38:41.089Z,33.30
2023-05-02T02:39:41.107Z,33.28
2023-05-02T02:40:41.113Z,33.32
2023-05-02T02:41:41.171Z,33.29
2023-05-02T02:42:41.180Z,33.30
2023-05-02T02:43:41.237Z,33.32
2023-05-02T02:44:41.207Z,33.31
2023-05-02T02:45:41.255Z,33.31
2023-05-02T02:46:41.309Z,33.34
2023-05-02T02:47:41.382Z,33.32
2023-05-02T02:48:41.360Z,33.32
2023-05-02T02:49:41.383Z,33.32
2023-05-02T02:50:41.396Z,33.33
2023-05-02T02:51:41.358Z,33.32
2023-05-02T02:52:41.386Z,33.33
2023-05-02T02:53:41.684Z,33.31
2023-05-02T02:54:41.564Z,33.33
2023-05-02T02:55:41.448Z,33.32
2023-05-02T02:56:41.469Z,33.32
2023-05-02T02:57:41.485Z,33.32
2023-05-02T02:58:41.460Z,33.32
2023-05-02T02:59:41.542Z,33.31
2023-05-02T03:00:41.593Z,33.31
2023-05-02T03:01:41.566Z,33.32
2023-05-02T03:02:41.587Z,33.32
2023-05-02T03:03:41.630Z,33.33
2023-05-02T03:04:41.585Z,33.30
2023-05-02T03:05:41.631Z,33.30
2023-05-02T03:06:41.673Z,33.30
2023-05-02T03:07:41.667Z,33.29
2023-05-02T03:08:41.669Z,33.30
2023-05-02T03:09:41.689Z,33.31
2023-05-02T03:10:41.721Z,33.31
2023-05-02T03:11:41.733Z,33.29
2023-05-02T03:12:41.745Z,33.31
2023-05-02T03:13:41.828Z,33.29
2023-05-02T03:14:41.797Z,33.32
2023-05-02T03:15:41.889Z,33.30
2023-05-02T03:16:41.950Z,33.32
2023-05-02T03:17:41.908Z,33.31
2023-05-02T03:18:41.871Z,33.31
2023-05-02T03:19:41.888Z,33.30
2023-05-02T03:20:41.899Z,33.32
2023-05-02T03:21:41.954Z,33.33
2023-05-02T03:22:41.950Z,33.30
2023-05-02T03:23:41.967Z,33.31
2023-05-02T03:24:41.990Z,33.30
2023-05-02T03:25:42.043Z,33.28
2023-05-02T03:26:42.031Z,33.30
2023-05-02T03:27:42.066Z,33.27
2023-05-02T03:28:42.097Z,33.30
2023-05-02T03:29:42.095Z,33.29
2023-05-02T03:30:42.096Z,33.28
2023-05-02T03:31:42.180Z,33.28
2023-05-02T03:32:42.206Z,33.28
2023-05-02T03:33:42.178Z,33.30
2023-05-02T03:34:42.196Z,33.27
2023-05-02T03:35:42.212Z,33.29
2023-05-02T03:36:42.199Z,33.25
2023-05-02T03:37:42.234Z,33.24
2023-05-02T03:38:42.239Z,33.23
2023-05-02T03:39:42.237Z,33.23
2023-05-02T03:40:42.262Z,33.22
2023-05-02T03:41:42.314Z,33.23
2023-05-02T03:42:42.301Z,33.22
2023-05-02T03:43:42.315Z,33.21
2023-05-02T03:44:42.336Z,33.20
2023-05-02T03:45:42.428Z,33.20
2023-05-02T03:46:42.402Z,33.20
2023-05-02T03:47:42.390Z,33.20
2023-05-02T03:48:42.442Z,33.23
2023-05-02T03:49:42.451Z,33.20
2023-05-02T03:50:42.421Z,33.18
2023-05-02T03:51:42.471Z,33.17
2023-05-02T03:52:42.466Z,33.16
2023-05-02T03:53:42.516Z,33.18
2023-05-02T03:54:42.498Z,33.15
2023-05-02T03:55:42.519Z,33.12
2023-05-02T03:56:42.874Z,33.10
2023-05-02T03:57:42.520Z,33.06
2023-05-02T03:58:42.507Z,33.05
2023-05-02T03:59:42.537Z,32.98
2023-05-02T04:00:42.528Z,32.95
2023-05-02T04:01:42.592Z,32.91
2023-05-02T04:02:42.658Z,32.88
2023-05-02T04:03:42.593Z,32.85
2023-05-02T04:04:42.649Z,32.81
2023-05-02T04:05:42.640Z,32.78
2023-05-02T04:06:42.744Z,32.73
2023-05-02T04:07:42.831Z,32.70
2023-05-02T04:08:42.801Z,32.68
2023-05-02T04:09:42.876Z,32.63
2023-05-02T04:10:42.921Z,32.60
2023-05-02T04:11:42.964Z,32.56
2023-05-02T04:12:43.070Z,32.54
2023-05-02T04:13:43.104Z,32.52
2023-05-02T04:14:43.157Z,32.48
2023-05-02T04:15:43.215Z,32.47
2023-05-02T04:16:43.283Z,32.43
2023-05-02T04:17:43.322Z,32.43
2023-05-02T04:18:43.391Z,32.37
2023-05-02T04:19:43.406Z,32.37
2023-05-02T04:20:43.428Z,32.32
2023-05-02T04:21:43.473Z,32.32
2023-05-02T04:22:43.568Z,32.26
2023-05-02T04:23:43.597Z,32.25
2023-05-02T04:24:43.671Z,32.23
2023-05-02T04:25:43.619Z,32.20
2023-05-02T04:26:43.735Z,32.19
2023-05-02T04:27:43.751Z,32.18
2023-05-02T04:28:43.742Z,32.16
2023-05-02T04:29:43.848Z,32.15
2023-05-02T04:30:43.907Z,32.14
2023-05-02T04:31:43.864Z,32.15
2023-05-02T04:32:43.934Z,32.14
2023-05-02T04:33:43.937Z,32.13
2023-05-02T04:34:44.014Z,32.12
2023-05-02T04:35:44.023Z,32.12
2023-05-02T04:36:44.011Z,32.12
2023-05-02T04:37:44.108Z,32.12
2023-05-02T04:38:44.109Z,32.09
2023-05-02T04:39:44.143Z,32.11
2023-05-02T04:40:44.191Z,32.11
2023-05-02T04:41:44.209Z,32.11
2023-05-02T04:42:44.263Z,32.09
2023-05-02T04:43:44.258Z,32.13
2023-05-02T04:44:44.279Z,32.11
2023-05-02T04:45:44.298Z,32.12
2023-05-02T04:46:44.395Z,32.13
2023-05-02T04:47:44.390Z,32.11
2023-05-02T04:48:44.421Z,32.12
2023-05-02T04:49:44.461Z,32.14
2023-05-02T04:50:44.442Z,32.13
2023-05-02T04:51:44.495Z,32.12
2023-05-02T04:52:44.552Z,32.13
2023-05-02T04:53:44.575Z,32.13
2023-05-02T04:54:44.561Z,32.15
2023-05-02T04:55:44.589Z,32.12
2023-05-02T04:56:44.653Z,32.15
2023-05-02T04:57:44.609Z,32.14
2023-05-02T04:58:44.654Z,32.13
2023-05-02T04:59:44.713Z,32.12
2023-05-02T05:00:51.694Z,32.11
2023-05-02T05:01:44.740Z,32.14
2023-05-02T05:02:44.799Z,32.17
2023-05-02T05:03:44.759Z,32.16
2023-05-02T05:04:44.680Z,32.17
2023-05-02T05:05:44.704Z,32.17
2023-05-02T05:06:44.733Z,32.18
2023-05-02T05:07:44.646Z,32.17
2023-05-02T05:08:44.661Z,32.19
2023-05-02T05:09:44.678Z,32.17
2023-05-02T05:10:44.675Z,32.16
2023-05-02T05:11:44.712Z,32.17
2023-05-02T05:12:44.608Z,32.18
2023-05-02T05:13:44.628Z,32.19
2023-05-02T05:14:44.680Z,32.19
2023-05-02T05:15:44.800Z,32.21
2023-05-02T05:16:44.763Z,32.21
2023-05-02T05:17:44.700Z,32.20
2023-05-02T05:18:44.622Z,32.21
2023-05-02T05:19:44.642Z,32.18
2023-05-02T05:20:44.588Z,32.19
2023-05-02T05:21:44.587Z,32.21
2023-05-02T05:22:44.577Z,32.18
2023-05-02T05:23:44.574Z,32.20
2023-05-02T05:24:44.584Z,32.22
2023-05-02T05:25:45.740Z,32.24
2023-05-02T05:26:44.580Z,32.22
2023-05-02T05:27:44.551Z,32.20
2023-05-02T05:28:44.524Z,32.21
2023-05-02T05:29:44.538Z,32.24
2023-05-02T05:30:44.569Z,32.23
2023-05-02T05:31:44.546Z,32.21
2023-05-02T05:32:44.580Z,32.30
2023-05-02T05:33:44.582Z,32.75
2023-05-02T05:34:44.565Z,33.01
2023-05-02T05:35:44.602Z,33.99
2023-05-02T05:36:44.493Z,33.91
2023-05-02T05:37:44.562Z,34.10
2023-05-02T05:38:44.457Z,34.43
2023-05-02T05:39:44.609Z,34.31
2023-05-02T05:40:44.557Z,34.38
2023-05-02T05:41:44.535Z,35.55
2023-05-02T05:42:44.553Z,35.51
2023-05-02T05:43:44.597Z,35.22
2023-05-02T05:44:44.681Z,35.03
2023-05-02T05:45:44.710Z,34.54
2023-05-02T05:46:53.305Z,34.87
2023-05-02T05:47:44.919Z,35.13
2023-05-02T05:48:44.893Z,36.30
2023-05-02T05:49:45.137Z,36.10
2023-05-02T05:50:44.962Z,36.53
2023-05-02T05:51:44.968Z,36.44
2023-05-02T05:52:45.124Z,36.61
2023-05-02T05:53:45.077Z,36.28
2023-05-02T05:54:45.137Z,36.36
2023-05-02T05:55:45.135Z,36.52
2023-05-02T05:56:46.133Z,36.76
2023-05-02T05:57:45.243Z,36.93
2023-05-02T05:58:45.229Z,36.75
2023-05-02T05:59:45.208Z,37.43
2023-05-02T06:00:45.205Z,37.37
2023-05-02T06:01:45.217Z,37.55
2023-05-02T06:02:45.280Z,38.17
2023-05-02T06:03:45.315Z,37.87
2023-05-02T06:04:45.711Z,37.50
2023-05-02T06:05:45.365Z,37.49
2023-05-02T06:06:45.379Z,37.59
2023-05-02T06:07:45.373Z,37.89
2023-05-02T06:08:45.444Z,37.35
2023-05-02T06:09:45.480Z,38.13
2023-05-02T06:10:45.550Z,37.35
2023-05-02T06:11:45.562Z,37.18
2023-05-02T06:12:47.138Z,37.20
2023-05-02T06:13:45.723Z,37.28
2023-05-02T06:14:45.732Z,37.55
2023-05-02T06:15:45.872Z,37.30
2023-05-02T06:16:45.856Z,37.49
2023-05-02T06:17:45.978Z,37.68
2023-05-02T06:18:45.949Z,37.44
2023-05-02T06:19:46.185Z,37.46
2023-05-02T06:20:46.067Z,37.74
2023-05-02T06:21:46.162Z,37.57
2023-05-02T06:22:46.223Z,37.57
2023-05-02T06:23:46.212Z,37.86
2023-05-02T06:24:46.287Z,37.85
2023-05-02T06:25:46.327Z,37.58
2023-05-02T06:26:46.382Z,37.29
2023-05-02T06:27:46.415Z,37.19
2023-05-02T06:28:46.462Z,37.41
2023-05-02T06:29:46.701Z,37.11
2023-05-02T06:30:46.517Z,37.15
2023-05-02T06:31:46.618Z,37.26
2023-05-02T06:32:46.639Z,37.34
2023-05-02T06:33:46.672Z,37.54
2023-05-02T06:34:46.727Z,37.32
2023-05-02T06:35:46.766Z,37.35
2023-05-02T06:36:46.757Z,36.10
2023-05-02T06:37:46.757Z,35.84
2023-05-02T06:38:46.774Z,35.80
2023-05-02T06:39:46.848Z,35.73
2023-05-02T06:40:46.869Z,35.56
2023-05-02T06:41:46.879Z,35.81
2023-05-02T06:42:46.851Z,36.15
2023-05-02T06:43:46.894Z,36.49
2023-05-02T06:44:46.931Z,36.05
2023-05-02T06:45:46.989Z,35.59
2023-05-02T06:46:46.952Z,36.11
2023-05-02T06:47:46.994Z,36.29
2023-05-02T06:48:46.936Z,36.32
2023-05-02T06:49:46.932Z,36.64
2023-05-02T06:50:46.950Z,36.77
2023-05-02T06:51:46.940Z,36.45
2023-05-02T06:52:46.965Z,36.27
2023-05-02T06:53:46.968Z,36.75
2023-05-02T06:54:47.230Z,36.93
2023-05-02T06:55:47.049Z,37.05
2023-05-02T06:56:47.022Z,36.79
2023-05-02T06:57:47.120Z,36.62
2023-05-02T06:58:47.130Z,36.64
2023-05-02T06:59:47.201Z,37.18
2023-05-02T07:00:47.709Z,36.54
2023-05-02T07:01:47.323Z,36.84
2023-05-02T07:02:47.473Z,36.71
2023-05-02T07:03:47.431Z,36.73
2023-05-02T07:04:47.521Z,36.72
2023-05-02T07:05:47.692Z,36.56
2023-05-02T07:06:47.648Z,36.51
2023-05-02T07:07:47.578Z,36.70
2023-05-02T07:08:47.618Z,36.68
2023-05-02T07:09:47.632Z,36.53
2023-05-02T07:10:48.164Z,36.82
2023-05-02T07:11:47.726Z,36.61
2023-05-02T07:12:47.768Z,36.67
2023-05-02T07:13:47.802Z,36.81
2023-05-02T07:14:47.863Z,36.56
2023-05-02T07:15:47.875Z,37.11
2023-05-02T07:16:47.977Z,37.01
2023-05-02T07:17:47.967Z,36.76
2023-05-02T07:18:47.972Z,37.28
2023-05-02T07:19:48.009Z,37.11
2023-05-02T07:20:48.583Z,36.92
2023-05-02T07:21:48.019Z,36.34
2023-05-02T07:22:48.074Z,36.93
2023-05-02T07:23:48.072Z,36.60
2023-05-02T07:24:48.109Z,36.84
2023-05-02T07:25:48.160Z,36.76
2023-05-02T07:26:48.169Z,37.18
2023-05-02T07:27:48.180Z,37.11
2023-05-02T07:28:48.211Z,36.90
2023-05-02T07:29:48.272Z,36.89
2023-05-02T07:30:48.775Z,37.31
2023-05-02T07:31:48.374Z,36.43
2023-05-02T07:32:48.409Z,36.04
2023-05-02T07:33:48.380Z,36.06
2023-05-02T07:34:48.481Z,36.09
2023-05-02T07:35:48.497Z,35.65
2023-05-02T07:36:48.528Z,35.62
2023-05-02T07:37:48.525Z,35.83
2023-05-02T07:38:48.538Z,36.09
2023-05-02T07:39:48.557Z,36.35
2023-05-02T07:40:48.666Z,36.12
2023-05-02T07:41:48.578Z,36.45
2023-05-02T07:42:48.633Z,36.91
2023-05-02T07:43:48.633Z,37.75
2023-05-02T07:44:48.646Z,37.69
2023-05-02T07:45:48.774Z,37.74
2023-05-02T07:46:48.797Z,37.24
2023-05-02T07:47:48.764Z,37.40
2023-05-02T07:48:48.732Z,37.72
2023-05-02T07:49:48.738Z,37.52
2023-05-02T07:50:49.194Z,38.04
2023-05-02T07:51:48.734Z,37.64
2023-05-02T07:52:48.766Z,37.79
2023-05-02T07:53:48.738Z,37.84
2023-05-02T07:54:48.781Z,37.80
2023-05-02T07:55:48.842Z,37.60
2023-05-02T07:56:48.905Z,37.60
2023-05-02T07:57:48.925Z,38.10
2023-05-02T07:58:49.006Z,38.24
2023-05-02T07:59:49.045Z,37.77
2023-05-02T08:00:49.084Z,38.20
2023-05-02T08:01:49.129Z,37.69
2023-05-02T08:02:49.238Z,38.11
2023-05-02T08:03:49.319Z,38.54
2023-05-02T08:04:49.404Z,38.37
2023-05-02T08:05:49.299Z,38.19
2023-05-02T08:06:49.520Z,37.93
2023-05-02T08:07:49.356Z,37.92
2023-05-02T08:08:49.372Z,37.86
2023-05-02T08:09:49.440Z,38.07
2023-05-02T08:10:49.430Z,37.89
2023-05-02T08:11:49.435Z,37.86
2023-05-02T08:12:49.507Z,39.13
2023-05-02T08:13:49.502Z,38.71
2023-05-02T08:14:49.580Z,38.16
2023-05-02T08:15:49.619Z,38.12
2023-05-02T08:16:49.672Z,37.95
2023-05-02T08:17:49.665Z,37.93
2023-05-02T08:18:49.696Z,37.92
2023-05-02T08:19:49.670Z,37.89
2023-05-02T08:20:49.708Z,38.00
2023-05-02T08:21:49.718Z,37.71
2023-05-02T08:22:49.846Z,38.78
2023-05-02T08:23:49.941Z,37.89
2023-05-02T08:24:49.959Z,38.09
2023-05-02T08:25:49.969Z,38.06
2023-05-02T08:26:49.931Z,38.18
2023-05-02T08:27:50.004Z,38.19
2023-05-02T08:28:50.027Z,37.72
2023-05-02T08:29:50.072Z,37.70
2023-05-02T08:30:50.080Z,38.34
2023-05-02T08:31:50.117Z,37.02
2023-05-02T08:32:50.154Z,34.47
2023-05-02T08:33:50.115Z,35.19
2023-05-02T08:34:50.160Z,36.46
2023-05-02T08:35:50.204Z,37.09
2023-05-02T08:36:50.205Z,37.62
2023-05-02T08:37:50.241Z,38.39
2023-05-02T08:38:50.312Z,38.66
2023-05-02T08:39:50.345Z,38.97
2023-05-02T08:40:50.833Z,38.89
2023-05-02T08:41:50.468Z,38.49
2023-05-02T08:42:50.476Z,38.18
2023-05-02T08:43:50.459Z,37.79
2023-05-02T08:44:50.649Z,37.11
2023-05-02T08:45:50.764Z,37.15
2023-05-02T08:46:50.478Z,37.94
2023-05-02T08:47:50.558Z,38.32
2023-05-02T08:48:50.544Z,37.84
2023-05-02T08:49:50.622Z,38.66
2023-05-02T08:50:50.822Z,37.66
2023-05-02T08:51:50.693Z,37.76
2023-05-02T08:52:50.728Z,36.95
2023-05-02T08:53:50.757Z,37.03
2023-05-02T08:54:50.754Z,37.09
2023-05-02T08:55:50.815Z,36.89
2023-05-02T08:56:50.828Z,36.82
2023-05-02T08:57:50.850Z,36.48
2023-05-02T08:58:50.894Z,36.43
2023-05-02T08:59:50.966Z,36.34
2023-05-02T09:00:51.039Z,36.40
2023-05-02T09:01:51.056Z,37.09
2023-05-02T09:02:51.171Z,36.29
2023-05-02T09:03:51.380Z,36.30
2023-05-02T09:04:51.232Z,36.42
2023-05-02T09:05:51.525Z,37.09
2023-05-02T09:06:51.430Z,36.94
2023-05-02T09:07:51.390Z,36.73
2023-05-02T09:08:51.509Z,37.82
2023-05-02T09:09:51.557Z,38.55
2023-05-02T09:10:51.587Z,37.97
2023-05-02T09:11:51.722Z,37.35
2023-05-02T09:12:51.712Z,36.97
2023-05-02T09:13:51.672Z,36.66
2023-05-02T09:14:52.238Z,36.84
2023-05-02T09:15:51.758Z,36.63
2023-05-02T09:16:52.256Z,36.53
2023-05-02T09:17:51.762Z,36.71
2023-05-02T09:18:51.750Z,36.63
2023-05-02T09:19:51.743Z,36.83
2023-05-02T09:20:51.806Z,37.67
2023-05-02T09:21:52.267Z,37.52
2023-05-02T09:22:51.761Z,37.34
2023-05-02T09:23:51.811Z,37.52
2023-05-02T09:24:51.833Z,37.21
2023-05-02T09:25:51.923Z,36.93
2023-05-02T09:26:52.057Z,36.82
2023-05-02T09:27:52.056Z,36.57
2023-05-02T09:28:52.093Z,37.35
2023-05-02T09:29:52.176Z,36.94
2023-05-02T09:30:52.284Z,36.66
2023-05-02T09:31:56.107Z,36.70
2023-05-02T09:32:52.314Z,36.66
2023-05-02T09:33:52.255Z,36.63
2023-05-02T09:34:52.329Z,37.71
2023-05-02T09:35:52.301Z,37.19
2023-05-02T09:36:52.371Z,37.31
2023-05-02T09:37:52.290Z,36.76
2023-05-02T09:38:52.253Z,36.65
2023-05-02T09:39:52.187Z,36.75
2023-05-02T09:40:52.203Z,36.71
2023-05-02T09:41:52.209Z,36.46
2023-05-02T09:42:52.175Z,36.27
2023-05-02T09:43:52.183Z,35.69
2023-05-02T09:44:52.137Z,35.59
2023-05-02T09:45:52.194Z,34.21
2023-05-02T09:46:52.161Z,34.44
2023-05-02T09:47:52.168Z,34.44
2023-05-02T09:48:52.161Z,34.39
2023-05-02T09:49:52.136Z,34.67
2023-05-02T09:50:52.132Z,34.69
2023-05-02T09:51:52.108Z,34.75
2023-05-02T09:52:52.108Z,35.01
2023-05-02T09:53:52.122Z,35.27
2023-05-02T09:54:52.088Z,35.55
2023-05-02T09:55:52.098Z,35.60
2023-05-02T09:56:52.079Z,35.67
2023-05-02T09:57:52.113Z,35.58
2023-05-02T09:58:52.033Z,35.86
2023-05-02T09:59:52.051Z,35.70
2023-05-02T10:00:52.074Z,35.97
2023-05-02T10:01:52.348Z,35.82
2023-05-02T10:02:52.136Z,35.81
2023-05-02T10:03:52.165Z,35.90
2023-05-02T10:04:52.203Z,36.02
2023-05-02T10:05:52.257Z,36.00
2023-05-02T10:06:52.363Z,36.10
2023-05-02T10:07:52.312Z,36.04
2023-05-02T10:08:52.386Z,36.03
2023-05-02T10:09:52.402Z,36.16
2023-05-02T10:10:52.455Z,36.13
2023-05-02T10:11:52.552Z,35.96
2023-05-02T10:12:52.517Z,36.31
2023-05-02T10:13:52.559Z,36.32
2023-05-02T10:14:52.644Z,36.36
2023-05-02T10:15:52.729Z,36.37
2023-05-02T10:16:52.740Z,36.85
2023-05-02T10:17:52.734Z,36.20
2023-05-02T10:18:52.716Z,36.49
2023-05-02T10:19:52.730Z,36.51
2023-05-02T10:20:52.732Z,36.48
2023-05-02T10:21:53.306Z,36.55
2023-05-02T10:22:52.834Z,36.50
2023-05-02T10:23:52.839Z,36.43
2023-05-02T10:24:52.913Z,36.63
2023-05-02T10:25:52.905Z,36.40
2023-05-02T10:26:53.340Z,36.45
2023-05-02T10:27:52.925Z,36.45
2023-05-02T10:28:52.951Z,36.45
2023-05-02T10:29:52.950Z,36.56
2023-05-02T10:30:52.958Z,36.46
2023-05-02T10:31:53.061Z,36.32
2023-05-02T10:32:53.077Z,36.40
2023-05-02T10:33:53.048Z,36.75
2023-05-02T10:34:53.000Z,36.54
2023-05-02T10:35:53.046Z,36.40
2023-05-02T10:36:53.296Z,36.10
2023-05-02T10:37:53.110Z,36.35
2023-05-02T10:38:53.125Z,35.82
2023-05-02T10:39:53.128Z,34.59
2023-05-02T10:40:53.241Z,32.27
2023-05-02T10:41:53.268Z,32.95
2023-05-02T10:42:53.612Z,33.17
2023-05-02T10:43:53.213Z,33.42
2023-05-02T10:44:53.227Z,33.66
2023-05-02T10:45:53.277Z,33.50
2023-05-02T10:46:53.357Z,33.57
2023-05-02T10:47:53.368Z,33.45
2023-05-02T10:48:53.313Z,33.11
2023-05-02T10:49:53.283Z,33.30
2023-05-02T10:50:53.820Z,32.96
2023-05-02T10:51:53.312Z,33.08
2023-05-02T10:52:53.251Z,33.09
2023-05-02T10:53:53.260Z,33.08
2023-05-02T10:54:53.230Z,32.53
2023-05-02T10:55:53.260Z,32.12
2023-05-02T10:56:53.276Z,32.71
2023-05-02T10:57:53.295Z,33.15
2023-05-02T10:58:53.301Z,32.10
2023-05-02T10:59:53.311Z,32.70
2023-05-02T11:00:53.547Z,32.49
2023-05-02T11:01:53.783Z,33.72
2023-05-02T11:02:53.455Z,32.19
2023-05-02T11:03:53.383Z,32.87
2023-05-02T11:04:53.486Z,32.28
2023-05-02T11:05:53.352Z,32.26
2023-05-02T11:06:53.822Z,32.47
2023-05-02T11:07:53.350Z,33.01
2023-05-02T11:08:53.371Z,32.79
2023-05-02T11:09:53.425Z,32.81
2023-05-02T11:10:53.465Z,33.02
2023-05-02T11:11:53.790Z,32.51
2023-05-02T11:12:53.511Z,32.18
2023-05-02T11:13:53.562Z,32.08
2023-05-02T11:14:53.544Z,32.18
2023-05-02T11:15:53.571Z,32.21
2023-05-02T11:16:53.818Z,33.45
2023-05-02T11:17:53.720Z,32.60
2023-05-02T11:18:53.674Z,32.53
2023-05-02T11:19:54.309Z,32.55
2023-05-02T11:20:53.745Z,31.81
2023-05-02T11:21:53.816Z,32.46
2023-05-02T11:22:54.801Z,32.14
2023-05-02T11:23:53.882Z,32.15
2023-05-02T11:24:53.921Z,31.71
2023-05-02T11:25:53.965Z,31.93
2023-05-02T11:26:54.367Z,31.22
2023-05-02T11:27:54.054Z,31.51
2023-05-02T11:28:54.050Z,31.14
2023-05-02T11:29:54.085Z,30.74
2023-05-02T11:30:54.957Z,30.40
2023-05-02T11:31:54.355Z,30.46
2023-05-02T11:32:54.231Z,30.34
2023-05-02T11:33:54.208Z,30.87
2023-05-02T11:34:54.194Z,31.28
2023-05-02T11:35:54.240Z,31.55
2023-05-02T11:36:54.790Z,31.66
2023-05-02T11:37:54.276Z,31.79
2023-05-02T11:38:54.304Z,31.80
2023-05-02T11:39:54.355Z,31.82
2023-05-02T11:40:54.388Z,31.78
2023-05-02T11:41:54.451Z,31.77
2023-05-02T11:42:54.524Z,31.76
2023-05-02T11:43:54.453Z,31.75
2023-05-02T11:44:54.483Z,31.67
2023-05-02T11:45:54.568Z,31.61
2023-05-02T11:46:54.509Z,31.58
2023-05-02T11:47:54.600Z,31.58
2023-05-02T11:48:54.600Z,31.63
2023-05-02T11:49:54.654Z,31.49
2023-05-02T11:50:54.721Z,31.57
2023-05-02T11:51:54.769Z,31.60
2023-05-02T11:52:54.804Z,31.66
2023-05-02T11:53:54.863Z,31.64
2023-05-02T11:54:54.949Z,31.62
2023-05-02T11:55:55.034Z,31.59
2023-05-02T11:56:55.023Z,31.56
2023-05-02T11:57:55.072Z,31.51
2023-05-02T11:58:55.096Z,31.50
2023-05-02T11:59:55.117Z,31.48
2023-05-02T12:00:55.166Z,31.49
2023-05-02T12:01:55.214Z,31.50
2023-05-02T12:02:55.293Z,31.50
2023-05-02T12:03:55.348Z,31.49
2023-05-02T12:04:55.324Z,31.47
2023-05-02T12:05:55.432Z,31.46
2023-05-02T12:06:55.530Z,31.43
2023-05-02T12:07:55.524Z,31.44
2023-05-02T12:08:55.493Z,31.42
2023-05-02T12:09:55.531Z,31.42
2023-05-02T12:10:55.536Z,31.46
2023-05-02T12:11:55.584Z,31.47
2023-05-02T12:12:55.640Z,31.42
2023-05-02T12:13:55.669Z,31.46
2023-05-02T12:14:55.703Z,31.49
2023-05-02T12:15:55.879Z,31.55
2023-05-02T12:16:55.789Z,31.74
2023-05-02T12:17:55.834Z,31.93
2023-05-02T12:18:55.871Z,32.62
2023-05-02T12:19:55.911Z,32.51
2023-05-02T12:20:55.999Z,33.31
2023-05-02T12:21:55.954Z,34.55
2023-05-02T12:22:55.962Z,34.55
2023-05-02T12:23:55.978Z,34.99
2023-05-02T12:24:55.997Z,36.36
2023-05-02T12:25:55.978Z,35.92
2023-05-02T12:26:56.034Z,35.40
2023-05-02T12:27:55.980Z,35.59
2023-05-02T12:28:56.002Z,35.63
2023-05-02T12:29:56.012Z,35.67
2023-05-02T12:30:56.007Z,35.61
2023-05-02T12:31:56.131Z,35.45
2023-05-02T12:32:56.020Z,35.42
2023-05-02T12:33:56.059Z,35.43
2023-05-02T12:34:56.026Z,35.43
2023-05-02T12:35:56.089Z,35.47
2023-05-02T12:36:56.096Z,35.48
2023-05-02T12:37:56.132Z,35.42
2023-05-02T12:38:56.190Z,35.37
2023-05-02T12:39:56.243Z,35.29
2023-05-02T12:40:56.249Z,35.23
2023-05-02T12:41:56.340Z,35.19
2023-05-02T12:42:56.337Z,35.11
2023-05-02T12:43:56.658Z,35.03
2023-05-02T12:44:56.518Z,34.96
2023-05-02T12:45:56.570Z,34.94
2023-05-02T12:46:56.702Z,34.85
2023-05-02T12:47:56.750Z,34.79
2023-05-02T12:48:56.720Z,34.68
2023-05-02T12:49:56.796Z,34.68
2023-05-02T12:50:56.870Z,34.60
2023-05-02T12:51:56.949Z,34.53
2023-05-02T12:52:56.941Z,34.41